Terminal Aerodrome Forecast
Issued by NWS Austin/San Antonio, TX

Home | Current Version | Previous Version | Text Only | Print | Product List | Glossary On
Versions: 1 2 3 4 5 6 7 8 9 10 11 12 13 14 15 16 17 18 19 20 21 22 23 24 25 26 27
000
FTUS44 KEWX 221321 AAA
TAFSAT
TAF AMD
KSAT 221321Z 2213/2318 15008KT P6SM SCT015 SCT025 BKN250
     FM221600 13011KT P6SM SCT040
     FM230700 15005KT P6SM BKN012=

USA.gov is the U.S. government's official web portal to all federal, state and local government web resources and services.